createdAt,value
2022-12-08T00:01:33.767Z,100170.84
2022-12-08T00:04:02.869Z,100176.09
2022-12-08T00:06:50.496Z,100177.84
2022-12-08T00:09:24.916Z,100170.97
2022-12-08T00:11:55.602Z,100166.59
2022-12-08T00:14:29.308Z,100169.31
2022-12-08T00:16:57.949Z,100160.63
2022-12-08T00:19:26.980Z,100159.81
2022-12-08T00:21:56.064Z,100154.56
2022-12-08T00:24:30.242Z,100153.72
2022-12-08T00:26:57.987Z,100145.00
2022-12-08T00:29:25.763Z,100138.06
2022-12-08T00:31:53.616Z,100136.38
2022-12-08T00:34:21.701Z,100131.13
2022-12-08T00:36:49.501Z,100132.03
2022-12-08T00:39:18.398Z,100132.03
2022-12-08T00:42:05.125Z,100125.00
2022-12-08T00:44:33.005Z,100129.41
2022-12-08T00:47:00.812Z,100127.66
2022-12-08T00:49:28.853Z,100115.53
2022-12-08T00:51:56.798Z,100117.22
2022-12-08T00:54:24.702Z,100113.78
2022-12-08T00:56:53.874Z,100116.50
2022-12-08T00:59:21.685Z,100109.56
2022-12-08T01:01:49.612Z,100117.44
2022-12-08T01:04:18.802Z,100107.88
2022-12-08T01:06:47.066Z,100119.25
2022-12-08T01:09:16.376Z,100123.63
2022-12-08T01:11:45.419Z,100107.97
2022-12-08T01:14:15.109Z,100109.78
2022-12-08T01:16:43.563Z,100105.47
2022-12-08T01:19:12.915Z,100107.22
2022-12-08T01:21:41.856Z,100109.06
2022-12-08T01:24:12.174Z,100103.03
2022-12-08T01:26:40.015Z,100108.25
2022-12-08T01:29:08.049Z,100109.22
2022-12-08T01:31:37.304Z,100099.75
2022-12-08T01:34:05.421Z,100098.81
2022-12-08T01:36:37.001Z,100104.09
2022-12-08T01:39:07.183Z,100103.31
2022-12-08T01:41:37.599Z,100095.53
2022-12-08T01:44:44.268Z,100088.59
2022-12-08T01:47:13.550Z,100094.69
2022-12-08T01:49:41.445Z,100089.50
2022-12-08T01:52:15.359Z,100100.84
2022-12-08T01:54:48.777Z,100093.03
2022-12-08T01:57:21.419Z,100100.88
2022-12-08T01:59:53.446Z,100101.78
2022-12-08T02:02:22.710Z,100099.19
2022-12-08T02:04:50.675Z,100096.63
2022-12-08T02:07:19.415Z,100095.69
2022-12-08T02:09:47.601Z,100088.78
2022-12-08T02:12:15.817Z,100073.97
2022-12-08T02:14:43.968Z,100081.00
2022-12-08T02:17:29.260Z,100074.94
2022-12-08T02:20:24.741Z,100068.84
2022-12-08T02:22:58.494Z,100070.59
2022-12-08T02:25:40.160Z,100060.09
2022-12-08T02:28:29.146Z,100059.28
2022-12-08T02:31:10.809Z,100051.44
2022-12-08T02:34:07.074Z,100051.50
2022-12-08T02:36:45.033Z,100055.03
2022-12-08T02:39:24.270Z,100054.19
2022-12-08T02:41:58.772Z,100045.47
2022-12-08T02:44:31.959Z,100043.75
2022-12-08T02:47:05.723Z,100046.28
2022-12-08T02:49:36.230Z,100042.78
2022-12-08T02:52:45.432Z,100037.47
2022-12-08T02:55:21.584Z,100034.81
2022-12-08T02:58:20.004Z,100036.50
2022-12-08T03:01:01.563Z,100039.94
2022-12-08T03:03:36.620Z,100036.44
2022-12-08T03:06:19.022Z,100039.06
2022-12-08T03:08:55.616Z,100026.00
2022-12-08T03:11:29.668Z,100024.25
2022-12-08T03:14:01.143Z,100026.06
2022-12-08T03:16:33.507Z,100026.06
2022-12-08T03:19:07.642Z,100029.53
2022-12-08T03:21:38.677Z,100029.59
2022-12-08T03:24:09.050Z,100015.66
2022-12-08T03:26:43.136Z,100017.41
2022-12-08T03:29:11.642Z,100018.31
2022-12-08T03:31:43.804Z,100007.88
2022-12-08T03:34:12.970Z,100004.44
2022-12-08T03:36:42.141Z,100014.06
2022-12-08T03:39:09.913Z,99998.38
2022-12-08T03:41:37.832Z,100001.03
2022-12-08T03:44:06.041Z,99999.31
2022-12-08T03:46:33.806Z,99991.44
2022-12-08T03:49:01.575Z,99995.81
2022-12-08T03:51:29.323Z,99995.81
2022-12-08T03:53:58.498Z,99990.59
2022-12-08T03:56:28.583Z,99983.63
2022-12-08T03:58:56.797Z,99983.59
2022-12-08T04:01:25.246Z,99987.94
2022-12-08T04:03:53.384Z,99990.50
2022-12-08T04:06:22.266Z,99989.59
2022-12-08T04:08:51.396Z,99978.19
2022-12-08T04:11:20.849Z,99987.75
2022-12-08T04:13:48.941Z,99988.59
2022-12-08T04:16:19.093Z,99991.19
2022-12-08T04:18:47.215Z,99985.97
2022-12-08T04:21:15.674Z,99981.59
2022-12-08T04:23:43.786Z,99973.72
2022-12-08T04:26:12.501Z,99975.50
2022-12-08T04:28:41.619Z,99982.44
2022-12-08T04:31:09.715Z,99976.38
2022-12-08T04:33:37.614Z,99981.59
2022-12-08T04:36:06.867Z,99977.25
2022-12-08T04:38:34.996Z,99972.91
2022-12-08T04:41:02.982Z,99967.69
2022-12-08T04:43:30.922Z,99965.91
2022-12-08T04:46:00.052Z,99958.06
2022-12-08T04:48:27.944Z,99961.50
2022-12-08T04:50:56.024Z,99962.41
2022-12-08T04:53:23.930Z,99958.88
2022-12-08T04:55:51.665Z,99953.66
2022-12-08T04:58:20.591Z,99952.88
2022-12-08T05:00:49.281Z,99959.03
2022-12-08T05:03:22.536Z,99950.38
2022-12-08T05:05:54.692Z,99949.50
2022-12-08T05:08:22.740Z,99945.13
2022-12-08T05:10:50.557Z,99946.88
2022-12-08T05:13:18.351Z,99953.84
2022-12-08T05:15:46.138Z,99955.59
2022-12-08T05:18:13.983Z,99951.19
2022-12-08T05:20:43.213Z,99958.19
2022-12-08T05:23:11.121Z,99943.31
2022-12-08T05:25:39.347Z,99947.66
2022-12-08T05:28:39.637Z,99949.34
2022-12-08T05:30:55.406Z,99944.09
2022-12-08T05:33:23.231Z,99943.19
2022-12-08T05:35:53.002Z,99940.56
2022-12-08T05:38:21.563Z,99943.06
2022-12-08T05:40:50.258Z,99939.56
2022-12-08T05:43:17.995Z,99937.84
2022-12-08T05:45:45.786Z,99942.16
2022-12-08T05:48:13.606Z,99934.31
2022-12-08T05:50:41.363Z,99930.81
2022-12-08T05:53:10.739Z,99930.75
2022-12-08T05:55:38.532Z,99933.31
2022-12-08T05:58:08.163Z,99928.06
2022-12-08T06:00:40.908Z,99928.91
2022-12-08T06:03:08.826Z,99920.16
2022-12-08T06:05:36.932Z,99915.78
2022-12-08T06:08:05.118Z,99918.34
2022-12-08T06:10:34.715Z,99908.75
2022-12-08T06:13:03.587Z,99913.94
2022-12-08T06:15:31.476Z,99913.88
2022-12-08T06:17:59.275Z,99911.22
2022-12-08T06:20:27.065Z,99919.00
2022-12-08T06:22:55.244Z,99907.69
2022-12-08T06:25:23.258Z,99924.19
2022-12-08T06:27:52.628Z,99914.56
2022-12-08T06:30:20.424Z,99920.59
2022-12-08T06:32:48.145Z,99915.34
2022-12-08T06:35:15.861Z,99916.16
2022-12-08T06:37:43.639Z,99921.38
2022-12-08T06:40:12.211Z,99915.19
2022-12-08T06:42:46.807Z,99913.44
2022-12-08T06:45:17.529Z,99921.22
2022-12-08T06:47:45.667Z,99913.31
2022-12-08T06:50:15.214Z,99912.44
2022-12-08T06:52:54.335Z,99918.47
2022-12-08T06:55:58.960Z,99921.91
2022-12-08T06:58:16.627Z,99918.34
2022-12-08T07:00:46.313Z,99924.47
2022-12-08T07:03:14.791Z,99925.28
2022-12-08T07:05:42.585Z,99931.38
2022-12-08T07:08:10.907Z,99929.63
2022-12-08T07:10:39.255Z,99928.75
2022-12-08T07:13:07.019Z,99927.78
2022-12-08T07:15:34.904Z,99942.63
2022-12-08T07:18:04.175Z,99935.63
2022-12-08T07:20:31.936Z,99937.41
2022-12-08T07:22:59.817Z,99934.84
2022-12-08T07:25:27.896Z,99932.28
2022-12-08T07:27:55.660Z,99932.34
2022-12-08T07:30:23.599Z,99927.13
2022-12-08T07:32:51.506Z,99935.81
2022-12-08T07:35:20.643Z,99936.66
2022-12-08T07:37:48.435Z,99940.16
2022-12-08T07:40:16.757Z,99934.94
2022-12-08T07:42:44.493Z,99931.47
2022-12-08T07:45:12.483Z,99928.88
2022-12-08T07:47:40.253Z,99923.75
2022-12-08T07:50:09.374Z,99918.56
2022-12-08T07:52:38.537Z,99919.41
2022-12-08T07:55:07.218Z,99922.16
2022-12-08T07:57:34.950Z,99923.97
2022-12-08T08:00:04.092Z,99926.59
2022-12-08T08:02:39.665Z,99931.09
2022-12-08T08:05:08.368Z,99921.63
2022-12-08T08:07:37.194Z,99916.41
2022-12-08T08:10:08.241Z,99922.59
2022-12-08T08:12:36.627Z,99933.94
2022-12-08T08:15:07.394Z,99920.06
2022-12-08T08:17:35.810Z,99935.88
2022-12-08T08:20:04.118Z,99925.50
2022-12-08T08:22:32.119Z,99920.34
2022-12-08T08:25:00.226Z,99921.31
2022-12-08T08:27:29.346Z,99923.25
2022-12-08T08:29:57.177Z,99928.53
2022-12-08T08:32:24.878Z,99931.19
2022-12-08T08:34:52.701Z,99923.47
2022-12-08T08:37:20.636Z,99931.44
2022-12-08T08:39:48.440Z,99920.19
2022-12-08T08:42:16.219Z,99928.09
2022-12-08T08:44:45.373Z,99924.66
2022-12-08T08:47:13.402Z,99927.38
2022-12-08T08:49:41.122Z,99926.53
2022-12-08T08:52:09.083Z,99923.09
2022-12-08T08:54:36.850Z,99922.31
2022-12-08T08:57:04.852Z,99924.97
2022-12-08T08:59:32.622Z,99926.81
2022-12-08T09:02:02.066Z,99921.66
2022-12-08T09:04:30.092Z,99924.38
2022-12-08T09:06:57.997Z,99927.06
2022-12-08T09:09:25.843Z,99928.84
2022-12-08T09:11:55.202Z,99928.97
2022-12-08T09:14:23.645Z,99928.19
2022-12-08T09:16:51.429Z,99929.16
2022-12-08T09:19:20.677Z,99930.16
2022-12-08T09:21:48.562Z,99929.34
2022-12-08T09:24:16.700Z,99932.13
2022-12-08T09:26:45.589Z,99930.47
2022-12-08T09:29:13.783Z,99927.91
2022-12-08T09:31:41.838Z,99929.72
2022-12-08T09:34:10.984Z,99920.19
2022-12-08T09:36:40.427Z,99921.13
2022-12-08T09:39:08.250Z,99925.63
2022-12-08T09:41:43.355Z,99923.09
2022-12-08T09:44:39.064Z,99928.34
2022-12-08T09:47:15.268Z,99925.81
2022-12-08T09:49:48.244Z,99921.53
2022-12-08T09:52:24.738Z,99919.88
2022-12-08T09:54:52.697Z,99907.75
2022-12-08T09:57:25.086Z,99910.44
2022-12-08T09:59:58.358Z,99907.94
2022-12-08T10:02:29.763Z,99897.56
2022-12-08T10:04:58.778Z,99902.00
2022-12-08T10:07:37.859Z,99904.78
2022-12-08T10:10:15.001Z,99896.13
2022-12-08T10:12:48.994Z,99897.97
2022-12-08T10:15:34.837Z,99891.97
2022-12-08T10:18:10.115Z,99894.66
2022-12-08T10:20:41.132Z,99890.41
2022-12-08T10:23:17.327Z,99886.97
2022-12-08T10:25:47.008Z,99886.16
2022-12-08T10:28:15.120Z,99892.34
2022-12-08T10:30:42.948Z,99894.13
2022-12-08T10:33:16.728Z,99888.97
2022-12-08T10:35:47.535Z,99888.13
2022-12-08T10:38:22.738Z,99889.09
2022-12-08T10:40:52.723Z,99887.44
2022-12-08T10:43:25.039Z,99886.72
2022-12-08T10:45:52.785Z,99878.00
2022-12-08T10:48:23.628Z,99878.97
2022-12-08T10:50:55.863Z,99874.75
2022-12-08T10:53:27.486Z,99876.56
2022-12-08T10:56:07.988Z,99873.19
2022-12-08T10:58:42.219Z,99868.03
2022-12-08T11:01:13.080Z,99873.38
2022-12-08T11:03:46.619Z,99872.59
2022-12-08T11:06:18.648Z,99867.38
2022-12-08T11:08:51.528Z,99871.81
2022-12-08T11:11:24.335Z,99871.03
2022-12-08T11:13:55.461Z,99865.00
2022-12-08T11:16:24.551Z,99878.16
2022-12-08T11:18:57.643Z,99865.13
2022-12-08T11:21:35.756Z,99865.19
2022-12-08T11:24:23.083Z,99872.22
2022-12-08T11:26:54.116Z,99862.66
2022-12-08T11:29:22.006Z,99864.47
2022-12-08T11:31:55.648Z,99860.09
2022-12-08T11:34:32.831Z,99861.91
2022-12-08T11:37:00.812Z,99858.44
2022-12-08T11:39:33.299Z,99863.69
2022-12-08T11:42:04.888Z,99861.09
2022-12-08T11:44:39.239Z,99859.34
2022-12-08T11:47:13.608Z,99866.38
2022-12-08T11:49:43.656Z,99851.50
2022-12-08T11:52:22.290Z,99855.94
2022-12-08T11:54:56.988Z,99855.94
2022-12-08T11:57:28.218Z,99851.63
2022-12-08T11:59:58.742Z,99848.09
2022-12-08T12:02:28.949Z,99857.75
2022-12-08T12:05:03.000Z,99852.53
2022-12-08T12:07:43.486Z,99851.69
2022-12-08T12:10:29.143Z,99849.94
2022-12-08T12:13:14.311Z,99849.94
2022-12-08T12:16:14.300Z,99852.56
2022-12-08T12:18:46.525Z,99852.59
2022-12-08T12:21:19.276Z,99856.09
2022-12-08T12:23:53.230Z,99853.50
2022-12-08T12:26:25.077Z,99855.28
2022-12-08T12:28:56.807Z,99850.91
2022-12-08T12:31:27.438Z,99854.41
2022-12-08T12:33:58.104Z,99857.03
2022-12-08T12:36:26.573Z,99857.84
2022-12-08T12:39:04.296Z,99849.94
2022-12-08T12:41:43.103Z,99849.94
2022-12-08T12:44:40.868Z,99857.81
2022-12-08T12:47:14.806Z,99865.69
2022-12-08T12:49:53.774Z,99865.66
2022-12-08T12:52:41.400Z,99870.00
2022-12-08T12:55:49.540Z,99855.97
2022-12-08T12:58:40.944Z,99865.59
2022-12-08T13:01:38.580Z,99858.56
2022-12-08T13:04:09.371Z,99863.78
2022-12-08T13:06:42.035Z,99860.28
2022-12-08T13:09:22.306Z,99854.13
2022-12-08T13:11:54.222Z,99854.97
2022-12-08T13:14:32.616Z,99859.34
2022-12-08T13:17:02.189Z,99848.84
2022-12-08T13:19:34.599Z,99847.09
2022-12-08T13:22:02.607Z,99861.06
2022-12-08T13:24:36.091Z,99852.38
2022-12-08T13:27:35.636Z,99856.72
2022-12-08T13:30:37.060Z,99855.84
2022-12-08T13:33:19.171Z,99860.22
2022-12-08T13:35:56.215Z,99855.84
2022-12-08T13:38:30.164Z,99861.06
2022-12-08T13:40:58.526Z,99857.59
2022-12-08T13:43:45.064Z,99854.03
2022-12-08T13:57:43.932Z,99874.84
2022-12-08T14:00:18.563Z,99877.44
2022-12-08T14:02:49.155Z,99878.28
2022-12-08T14:05:34.643Z,99872.09
2022-12-08T14:08:36.267Z,99884.28
2022-12-08T14:11:09.044Z,99879.84
2022-12-08T14:13:37.127Z,99879.81
2022-12-08T14:16:05.013Z,99889.38
2022-12-08T14:18:33.108Z,99883.22
2022-12-08T14:21:21.458Z,99892.81
2022-12-08T14:23:49.887Z,99883.09
2022-12-08T14:26:18.010Z,99887.38
2022-12-08T14:28:45.917Z,99881.22
2022-12-08T14:31:14.756Z,99878.53
2022-12-08T14:33:43.103Z,99880.22
2022-12-08T14:36:15.832Z,99881.91
2022-12-08T14:38:43.659Z,99880.97
2022-12-08T14:41:13.165Z,99876.56
2022-12-08T14:43:44.704Z,99887.88
2022-12-08T14:46:22.246Z,99886.09
2022-12-08T14:48:50.241Z,99881.66
2022-12-08T14:51:25.207Z,99881.59
2022-12-08T14:53:58.507Z,99886.78
2022-12-08T14:56:29.718Z,99881.47
2022-12-08T14:59:07.573Z,99884.06
2022-12-08T15:01:36.567Z,99888.34
2022-12-08T15:04:09.605Z,99889.13
2022-12-08T15:06:39.053Z,99883.81
2022-12-08T15:09:18.973Z,99882.91
2022-12-08T15:11:46.740Z,99889.88
2022-12-08T15:14:29.432Z,99896.78
2022-12-08T15:16:57.520Z,99900.22
2022-12-08T15:19:29.696Z,99914.97
2022-12-08T15:22:15.985Z,99911.41
2022-12-08T15:24:43.884Z,99917.44
2022-12-08T15:27:18.734Z,99913.00
2022-12-08T15:29:48.341Z,99913.78
2022-12-08T15:32:19.791Z,99918.94
2022-12-08T15:34:48.136Z,99928.50
2022-12-08T15:37:21.457Z,99929.34
2022-12-08T15:39:49.438Z,99931.84
2022-12-08T15:42:17.433Z,99935.28
2022-12-08T15:44:45.403Z,99930.00
2022-12-08T15:47:17.701Z,99934.28
2022-12-08T15:49:46.498Z,99929.81
2022-12-08T15:52:15.741Z,99933.22
2022-12-08T15:54:44.906Z,99938.41
2022-12-08T15:57:35.958Z,99938.34
2022-12-08T16:00:51.264Z,99933.84
2022-12-08T16:09:11.751Z,99942.25
2022-12-08T16:12:08.331Z,99943.00
2022-12-08T16:17:26.228Z,99948.94
2022-12-08T16:19:54.157Z,99947.16
2022-12-08T16:25:18.696Z,99953.09
2022-12-08T16:28:01.302Z,99945.22
2022-12-08T16:30:31.179Z,99953.94
2022-12-08T16:32:58.989Z,99951.22
2022-12-08T16:35:26.703Z,99953.75
2022-12-08T16:37:54.713Z,99950.31
2022-12-08T16:40:22.794Z,99950.22
2022-12-08T16:42:50.980Z,99960.66
2022-12-08T16:45:20.729Z,99958.84
2022-12-08T16:47:50.606Z,99957.88
2022-12-08T16:50:21.137Z,99958.72
2022-12-08T16:52:49.351Z,99974.31
2022-12-08T16:55:19.024Z,99968.19
2022-12-08T16:57:48.155Z,99968.09
2022-12-08T17:00:19.721Z,99966.31
2022-12-08T17:02:48.196Z,99960.13
2022-12-08T17:05:18.919Z,99966.16
2022-12-08T17:07:48.970Z,99973.09
2022-12-08T17:10:20.760Z,99970.44
2022-12-08T17:12:48.601Z,99968.56
2022-12-08T17:15:21.018Z,99974.66
2022-12-08T17:17:48.826Z,99975.44
2022-12-08T17:20:19.367Z,99974.56
2022-12-08T17:22:47.498Z,99972.75
2022-12-08T17:25:16.205Z,99969.16
2022-12-08T17:27:43.987Z,99976.13
2022-12-08T17:30:15.669Z,99962.97
2022-12-08T17:32:44.954Z,99971.63
2022-12-08T17:35:13.343Z,99970.72
2022-12-08T17:37:41.462Z,99968.09
2022-12-08T17:40:10.446Z,99969.81
2022-12-08T17:42:38.697Z,99973.28
2022-12-08T17:45:07.747Z,99974.97
2022-12-08T17:47:36.114Z,99975.88
2022-12-08T17:50:06.849Z,99975.88
2022-12-08T17:52:34.883Z,99981.13
2022-12-08T17:55:03.081Z,99986.38
2022-12-08T17:57:31.690Z,99990.69
2022-12-08T17:59:59.410Z,100001.19
2022-12-08T18:02:27.249Z,99992.47
2022-12-08T18:04:55.093Z,99997.72
2022-12-08T18:07:24.173Z,99995.06
2022-12-08T18:09:52.522Z,99989.78
2022-12-08T18:12:23.572Z,99988.03
2022-12-08T18:14:52.273Z,99980.16
2022-12-08T18:17:20.599Z,99989.72
2022-12-08T18:19:48.387Z,99984.47
2022-12-08T18:22:16.181Z,99987.88
2022-12-08T18:24:47.569Z,99978.22
2022-12-08T18:27:15.282Z,99980.84
2022-12-08T18:29:43.030Z,99979.03
2022-12-08T18:32:10.852Z,99985.97
2022-12-08T18:34:38.613Z,99985.97
2022-12-08T18:37:07.375Z,99984.19
2022-12-08T18:39:35.147Z,99992.84
2022-12-08T18:42:22.742Z,99990.19
2022-12-08T18:44:51.863Z,99985.78
2022-12-08T18:47:20.056Z,99989.22
2022-12-08T18:49:47.810Z,99984.81
2022-12-08T18:52:22.096Z,99984.81
2022-12-08T18:55:09.067Z,100005.63
2022-12-08T18:57:39.894Z,99989.88
2022-12-08T19:00:10.104Z,99991.63
2022-12-08T19:02:38.774Z,99999.41
2022-12-08T19:05:07.274Z,99992.41
2022-12-08T19:07:35.296Z,99989.69
2022-12-08T19:10:03.882Z,99995.78
2022-12-08T19:12:31.790Z,99998.34
2022-12-08T19:15:00.888Z,100000.91
2022-12-08T19:17:29.708Z,99992.97
2022-12-08T19:19:57.481Z,99995.53
2022-12-08T19:22:25.233Z,99998.09
2022-12-08T19:24:52.976Z,99998.06
2022-12-08T19:27:20.752Z,99998.03
2022-12-08T19:29:48.582Z,100002.28
2022-12-08T19:32:17.698Z,100004.91
2022-12-08T19:34:45.647Z,99999.66
2022-12-08T19:37:13.724Z,99998.81
2022-12-08T19:39:59.196Z,100009.28
2022-12-08T19:42:44.310Z,100009.25
2022-12-08T19:45:14.835Z,100010.13
2022-12-08T19:47:44.581Z,100013.59
2022-12-08T19:50:31.413Z,100010.09
2022-12-08T19:52:59.758Z,100010.09
2022-12-08T19:55:28.452Z,100008.31
2022-12-08T19:57:57.082Z,100012.63
2022-12-08T20:00:25.217Z,100008.28
2022-12-08T20:02:54.504Z,100016.94
2022-12-08T20:05:22.972Z,100006.47
2022-12-08T20:07:51.623Z,100018.56
2022-12-08T20:10:22.008Z,100022.97
2022-12-08T20:12:49.962Z,100022.09
2022-12-08T20:15:17.845Z,100020.34
2022-12-08T20:17:45.626Z,100023.84
2022-12-08T20:20:15.289Z,100012.41
2022-12-08T20:22:45.103Z,100010.72
2022-12-08T20:25:13.439Z,100012.50
2022-12-08T20:27:41.403Z,100025.56
2022-12-08T20:30:16.544Z,100028.22
2022-12-08T20:32:45.040Z,100025.63
2022-12-08T20:35:15.237Z,100030.94
2022-12-08T20:37:43.258Z,100030.88
2022-12-08T20:40:11.624Z,100034.38
2022-12-08T20:42:39.383Z,100040.47
2022-12-08T20:45:09.384Z,100046.53
2022-12-08T20:47:37.958Z,100047.47
2022-12-08T20:50:08.490Z,100049.19
2022-12-08T20:52:38.890Z,100051.81
2022-12-08T20:55:08.106Z,100049.19
2022-12-08T20:57:36.087Z,100043.06
2022-12-08T21:00:04.283Z,100050.09
2022-12-08T21:02:32.526Z,100039.59
2022-12-08T21:05:00.683Z,100053.56
2022-12-08T21:07:28.690Z,100051.81
2022-12-08T21:09:57.834Z,100058.78
2022-12-08T21:12:26.575Z,100051.75
2022-12-08T21:14:54.363Z,100051.88
2022-12-08T21:17:22.435Z,100049.19
2022-12-08T21:19:50.463Z,100057.97
2022-12-08T21:22:18.394Z,100053.56
2022-12-08T21:24:46.151Z,100055.41
2022-12-08T21:27:15.277Z,100060.66
2022-12-08T21:29:43.127Z,100065.03
2022-12-08T21:32:10.968Z,100062.47
2022-12-08T21:34:39.101Z,100059.03
2022-12-08T21:37:06.846Z,100066.00
2022-12-08T21:39:34.672Z,100066.06
2022-12-08T21:42:22.760Z,100065.22
2022-12-08T21:44:52.529Z,100063.56
2022-12-08T21:47:20.584Z,100065.38
2022-12-08T21:49:48.620Z,100067.13
2022-12-08T21:52:16.528Z,100065.41
2022-12-08T21:54:44.649Z,100067.19
2022-12-08T21:57:13.489Z,100072.41
2022-12-08T21:59:41.288Z,100064.53
2022-12-08T22:02:17.939Z,100075.84
2022-12-08T22:04:49.979Z,100073.22
2022-12-08T22:07:18.324Z,100065.41
2022-12-08T22:09:46.400Z,100080.22
2022-12-08T22:12:16.476Z,100079.41
2022-12-08T22:14:45.064Z,100077.72
2022-12-08T22:17:14.380Z,100076.88
2022-12-08T22:19:42.320Z,100071.69
2022-12-08T22:22:10.244Z,100074.31
2022-12-08T22:24:38.246Z,100076.97
2022-12-08T22:27:06.103Z,100076.09
2022-12-08T22:29:34.353Z,100068.31
2022-12-08T22:32:02.303Z,100063.91
2022-12-08T22:34:31.762Z,100062.22
2022-12-08T22:36:59.597Z,100064.81
2022-12-08T22:39:27.661Z,100058.69
2022-12-08T22:41:55.593Z,100063.09
2022-12-08T22:44:23.628Z,100071.75
2022-12-08T22:46:51.726Z,100063.91
2022-12-08T22:49:19.795Z,100067.38
2022-12-08T22:51:49.038Z,100055.16
2022-12-08T22:54:16.928Z,100059.44
2022-12-08T22:56:44.720Z,100064.66
2022-12-08T22:59:12.679Z,100069.91
2022-12-08T23:01:40.665Z,100070.72
2022-12-08T23:04:14.182Z,100066.41
2022-12-08T23:06:45.548Z,100063.78
2022-12-08T23:09:15.163Z,100069.00
2022-12-08T23:11:44.261Z,100072.50
2022-12-08T23:14:12.124Z,100075.13
2022-12-08T23:16:40.016Z,100071.63
2022-12-08T23:19:07.841Z,100057.63
2022-12-08T23:21:35.581Z,100057.63
2022-12-08T23:24:03.366Z,100057.56
2022-12-08T23:26:35.303Z,100061.03
2022-12-08T23:29:03.301Z,100051.31
2022-12-08T23:31:31.836Z,100055.56
2022-12-08T23:33:59.628Z,100057.19
2022-12-08T23:36:27.488Z,100054.50
2022-12-08T23:38:56.108Z,100058.00
2022-12-08T23:41:24.042Z,100058.78
2022-12-08T23:43:53.369Z,100051.75
2022-12-08T23:46:23.096Z,100059.50
2022-12-08T23:48:52.290Z,100059.38
2022-12-08T23:51:20.574Z,100059.28
2022-12-08T23:53:48.853Z,100060.91
2022-12-08T23:56:18.061Z,100060.00
2022-12-08T23:58:46.969Z,100067.72
